createdAt,value
2022-11-29T00:00:15.939Z,100801.38
2022-11-29T00:00:37.603Z,100801.41
2022-11-29T00:00:59.718Z,100808.50
2022-11-29T00:01:23.971Z,100799.69
2022-11-29T00:01:45.678Z,100805.00
2022-11-29T00:02:07.353Z,100805.94
2022-11-29T00:02:31.415Z,100800.72
2022-11-29T00:02:53.361Z,100798.81
2022-11-29T00:03:15.304Z,100806.88
2022-11-29T00:03:37.426Z,100804.03
2022-11-29T00:04:00.567Z,100804.94
2022-11-29T00:04:22.162Z,100801.38
2022-11-29T00:04:44.016Z,100801.34
2022-11-29T00:05:07.103Z,100806.56
2022-11-29T00:05:29.635Z,100800.34
2022-11-29T00:05:53.224Z,100806.53
2022-11-29T00:06:16.743Z,100804.09
2022-11-29T00:06:38.728Z,100793.72
2022-11-29T00:07:00.396Z,100803.16
2022-11-29T00:07:23.295Z,100807.63
2022-11-29T00:07:47.759Z,100801.41
2022-11-29T00:08:10.754Z,100809.31
2022-11-29T00:08:32.749Z,100806.69
2022-11-29T00:08:55.605Z,100798.00
2022-11-29T00:09:19.009Z,100802.28
2022-11-29T00:09:40.798Z,100812.03
2022-11-29T00:10:04.936Z,100804.91
2022-11-29T00:10:26.596Z,100801.34
2022-11-29T00:10:49.266Z,100797.84
2022-11-29T00:11:14.252Z,100806.66
2022-11-29T00:12:01.078Z,100800.47
2022-11-29T00:12:22.700Z,100806.69
2022-11-29T00:12:46.701Z,100813.69
2022-11-29T00:13:09.006Z,100806.66
2022-11-29T00:13:30.642Z,100814.69
2022-11-29T00:13:54.551Z,100809.22
2022-11-29T00:14:18.601Z,100805.66
2022-11-29T00:14:41.034Z,100804.09
2022-11-29T00:15:05.409Z,100793.59
2022-11-29T00:15:27.092Z,100808.31
2022-11-29T00:15:48.770Z,100803.03
2022-11-29T00:16:11.986Z,100804.91
2022-11-29T00:16:34.391Z,100801.34
2022-11-29T00:16:59.245Z,100798.59
2022-11-29T00:17:21.398Z,100803.91
2022-11-29T00:17:44.369Z,100807.63
2022-11-29T00:18:08.252Z,100806.66
2022-11-29T00:18:31.166Z,100811.91
2022-11-29T00:18:53.201Z,100800.38
2022-11-29T00:19:14.807Z,100800.34
2022-11-29T00:19:38.258Z,100803.91
2022-11-29T00:20:00.104Z,100795.94
2022-11-29T00:20:22.395Z,100804.75
2022-11-29T00:20:43.975Z,100792.53
2022-11-29T00:21:06.732Z,100792.69
2022-11-29T00:21:29.405Z,100806.66
2022-11-29T00:21:53.285Z,100803.03
2022-11-29T00:22:14.927Z,100798.59
2022-11-29T00:22:37.600Z,100807.63
2022-11-29T00:23:00.815Z,100799.69
2022-11-29T00:23:22.709Z,100793.44
2022-11-29T00:23:45.346Z,100808.44
2022-11-29T00:24:09.875Z,100800.47
2022-11-29T00:24:32.573Z,100804.00
2022-11-29T00:24:54.246Z,100803.91
2022-11-29T00:25:15.934Z,100808.31
2022-11-29T00:25:39.434Z,100805.66
2022-11-29T00:26:03.839Z,100799.69
2022-11-29T00:26:25.462Z,100799.63
2022-11-29T00:26:48.965Z,100800.56
2022-11-29T00:27:11.496Z,100806.75
2022-11-29T00:27:33.157Z,100806.75
2022-11-29T00:27:54.720Z,100808.53
2022-11-29T00:28:16.650Z,100792.69
2022-11-29T00:28:38.389Z,100805.88
2022-11-29T00:29:00.946Z,100800.50
2022-11-29T00:29:22.569Z,100804.03
2022-11-29T00:29:44.132Z,100810.28
2022-11-29T00:30:07.418Z,100803.16
2022-11-29T00:30:29.990Z,100796.44
2022-11-29T00:30:51.698Z,100806.75
2022-11-29T00:31:15.748Z,100797.88
2022-11-29T00:31:37.388Z,100805.81
2022-11-29T00:32:00.267Z,100807.63
2022-11-29T00:32:21.874Z,100804.84
2022-11-29T00:32:44.837Z,100803.16
2022-11-29T00:33:06.390Z,100805.00
2022-11-29T00:33:29.080Z,100804.94
2022-11-29T00:33:51.256Z,100805.81
2022-11-29T00:34:13.104Z,100807.63
2022-11-29T00:34:34.865Z,100804.91
2022-11-29T00:34:59.611Z,100809.34
2022-11-29T00:35:21.508Z,100803.13
2022-11-29T00:35:43.111Z,100807.50
2022-11-29T00:36:05.093Z,100795.53
2022-11-29T00:36:28.434Z,100815.59
2022-11-29T00:36:50.035Z,100797.13
2022-11-29T00:37:11.642Z,100803.13
2022-11-29T00:37:34.229Z,100814.56
2022-11-29T00:37:55.833Z,100819.88
2022-11-29T00:38:17.375Z,100808.38
2022-11-29T00:38:39.335Z,100807.44
2022-11-29T00:39:01.990Z,100797.88
2022-11-29T00:39:24.254Z,100804.84
2022-11-29T00:39:45.826Z,100809.22
2022-11-29T00:40:09.706Z,100803.91
2022-11-29T00:40:31.248Z,100800.47
2022-11-29T00:40:52.854Z,100807.41
2022-11-29T00:41:14.510Z,100798.53
2022-11-29T00:41:36.108Z,100811.03
2022-11-29T00:41:58.670Z,100807.44
2022-11-29T00:42:20.591Z,100808.31
2022-11-29T00:42:42.201Z,100804.75
2022-11-29T00:43:03.849Z,100805.63
2022-11-29T00:43:25.452Z,100808.31
2022-11-29T00:43:48.613Z,100805.63
2022-11-29T00:44:14.008Z,100802.09
2022-11-29T00:44:38.500Z,100800.22
2022-11-29T00:45:01.078Z,100810.84
2022-11-29T00:45:22.700Z,100804.69
2022-11-29T00:45:44.340Z,100802.16
2022-11-29T00:46:06.687Z,100801.16
2022-11-29T00:46:28.464Z,100800.34
2022-11-29T00:46:51.210Z,100800.22
2022-11-29T00:47:12.877Z,100800.22
2022-11-29T00:47:34.723Z,100807.28
2022-11-29T00:47:57.776Z,100808.19
2022-11-29T00:48:20.372Z,100809.06
2022-11-29T00:48:41.947Z,100810.78
2022-11-29T00:49:03.886Z,100806.41
2022-11-29T00:49:26.480Z,100811.69
2022-11-29T00:49:48.074Z,100802.81
2022-11-29T00:50:10.327Z,100808.97
2022-11-29T00:50:31.901Z,100810.78
2022-11-29T00:50:53.499Z,100810.78
2022-11-29T00:51:16.163Z,100808.16
2022-11-29T00:51:38.168Z,100807.41
2022-11-29T00:51:59.849Z,100809.16
2022-11-29T00:52:22.443Z,100810.06
2022-11-29T00:52:44.025Z,100808.28
2022-11-29T00:53:05.619Z,100816.25
2022-11-29T00:53:27.702Z,100817.13
2022-11-29T00:53:49.382Z,100801.16
2022-11-29T00:54:12.020Z,100812.69
2022-11-29T00:54:33.686Z,100810.03
2022-11-29T00:54:55.317Z,100809.16
2022-11-29T00:55:17.260Z,100813.59
2022-11-29T00:55:39.884Z,100808.28
2022-11-29T00:56:02.058Z,100808.19
2022-11-29T00:56:23.760Z,100811.72
2022-11-29T00:56:46.399Z,100808.28
2022-11-29T00:57:07.977Z,100810.94
2022-11-29T00:57:29.611Z,100810.03
2022-11-29T00:57:51.280Z,100807.34
2022-11-29T00:58:12.874Z,100814.47
2022-11-29T00:58:36.819Z,100803.03
2022-11-29T00:58:58.541Z,100803.88
2022-11-29T00:59:20.710Z,100813.59
2022-11-29T00:59:43.389Z,100815.38
2022-11-29T01:00:06.471Z,100809.16
2022-11-29T01:00:28.314Z,100811.81
2022-11-29T01:00:50.436Z,100815.34
2022-11-29T01:01:12.281Z,100810.03
2022-11-29T01:01:34.940Z,100811.72
2022-11-29T01:01:56.729Z,100807.41
2022-11-29T01:02:18.409Z,100814.47
2022-11-29T01:02:40.077Z,100815.38
2022-11-29T01:03:03.082Z,100812.72
2022-11-29T01:03:26.147Z,100812.78
2022-11-29T01:03:48.010Z,100813.59
2022-11-29T01:04:09.665Z,100815.34
2022-11-29T01:04:32.226Z,100811.81
2022-11-29T01:04:53.799Z,100810.94
2022-11-29T01:05:15.439Z,100814.56
2022-11-29T01:05:37.371Z,100811.84
2022-11-29T01:06:03.342Z,100817.19
2022-11-29T01:06:25.057Z,100812.78
2022-11-29T01:06:46.666Z,100816.31
2022-11-29T01:07:08.552Z,100816.25
2022-11-29T01:07:31.236Z,100818.06
2022-11-29T01:07:53.480Z,100811.91
2022-11-29T01:08:17.539Z,100807.56
2022-11-29T01:08:40.048Z,100811.09
2022-11-29T01:09:10.042Z,100806.56
2022-11-29T01:09:31.982Z,100806.56
2022-11-29T01:09:53.619Z,100808.38
2022-11-29T01:10:15.286Z,100810.16
2022-11-29T01:10:37.952Z,100810.16
2022-11-29T01:11:06.227Z,100808.38
2022-11-29T01:11:28.512Z,100805.78
2022-11-29T01:11:51.923Z,100800.38
2022-11-29T01:12:13.572Z,100808.38
2022-11-29T01:12:36.326Z,100805.78
2022-11-29T01:12:58.262Z,100808.38
2022-11-29T01:13:20.322Z,100804.84
2022-11-29T01:13:43.632Z,100811.09
2022-11-29T01:14:05.280Z,100814.69
2022-11-29T01:14:27.238Z,100809.41
2022-11-29T01:14:49.821Z,100810.28
2022-11-29T01:15:11.898Z,100804.03
2022-11-29T01:15:33.946Z,100806.66
2022-11-29T01:16:41.324Z,100802.16
2022-11-29T01:17:03.010Z,100810.09
2022-11-29T01:17:24.613Z,100797.09
2022-11-29T01:17:46.525Z,100808.38
2022-11-29T01:18:09.463Z,100804.00
2022-11-29T01:18:33.583Z,100810.22
2022-11-29T01:18:55.135Z,100792.72
2022-11-29T01:19:16.789Z,100814.69
2022-11-29T01:19:38.504Z,100804.03
2022-11-29T01:20:01.106Z,100806.66
2022-11-29T01:20:22.881Z,100809.34
2022-11-29T01:20:44.458Z,100801.38
2022-11-29T01:21:08.609Z,100808.50
2022-11-29T01:21:31.512Z,100812.94
2022-11-29T01:21:53.095Z,100809.34
2022-11-29T01:22:14.845Z,100811.16
2022-11-29T01:22:37.376Z,100807.63
2022-11-29T01:23:00.083Z,100802.34
2022-11-29T01:23:21.662Z,100811.16
2022-11-29T01:23:44.545Z,100813.75
2022-11-29T01:24:07.206Z,100813.75
2022-11-29T01:24:30.428Z,100810.16
2022-11-29T01:24:52.084Z,100798.72
2022-11-29T01:25:14.906Z,100808.44
2022-11-29T01:25:36.472Z,100804.03
2022-11-29T01:25:59.670Z,100812.91
2022-11-29T01:26:24.315Z,100809.34
2022-11-29T01:26:45.903Z,100813.81
2022-11-29T01:27:07.489Z,100793.59
2022-11-29T01:27:30.537Z,100811.16
2022-11-29T01:27:52.140Z,100805.88
2022-11-29T01:28:13.749Z,100810.22
2022-11-29T01:28:36.279Z,100810.28
2022-11-29T01:28:59.692Z,100800.63
2022-11-29T01:29:21.272Z,100806.69
2022-11-29T01:29:43.070Z,100808.44
2022-11-29T01:30:05.342Z,100811.09
2022-11-29T01:30:27.960Z,100812.03
2022-11-29T01:30:49.818Z,100802.28
2022-11-29T01:31:13.711Z,100806.75
2022-11-29T01:31:36.834Z,100810.28
2022-11-29T01:31:58.406Z,100816.44
2022-11-29T01:32:19.987Z,100809.34
2022-11-29T01:32:41.647Z,100812.91
2022-11-29T01:33:03.393Z,100811.09
2022-11-29T01:33:27.313Z,100807.56
2022-11-29T01:33:49.346Z,100797.97
2022-11-29T01:34:11.071Z,100812.03
2022-11-29T01:34:32.714Z,100814.69
2022-11-29T01:34:55.887Z,100818.31
2022-11-29T01:35:17.745Z,100809.56
2022-11-29T01:35:39.513Z,100811.19
2022-11-29T01:36:01.306Z,100816.50
2022-11-29T01:36:24.966Z,100811.19
2022-11-29T01:36:46.577Z,100803.47
2022-11-29T01:37:08.309Z,100807.56
2022-11-29T01:37:29.985Z,100810.28
2022-11-29T01:37:52.621Z,100800.66
2022-11-29T01:38:14.192Z,100823.47
2022-11-29T01:38:36.797Z,100817.34
2022-11-29T01:38:59.053Z,100821.66
2022-11-29T01:39:21.638Z,100817.22
2022-11-29T01:39:43.570Z,100808.44
2022-11-29T01:40:06.767Z,100818.22
2022-11-29T01:40:29.099Z,100813.75
2022-11-29T01:41:01.857Z,100816.47
2022-11-29T01:41:28.257Z,100814.69
2022-11-29T01:41:49.886Z,100821.78
2022-11-29T01:42:12.067Z,100813.75
2022-11-29T01:42:34.024Z,100815.56
2022-11-29T01:42:56.630Z,100817.31
2022-11-29T01:43:18.798Z,100826.13
2022-11-29T01:43:59.193Z,100823.59
2022-11-29T01:44:59.354Z,100819.97
2022-11-29T01:45:23.963Z,100821.75
2022-11-29T01:45:45.662Z,100820.88
2022-11-29T01:46:08.885Z,100826.13
2022-11-29T01:46:32.882Z,100815.59
2022-11-29T01:46:55.318Z,100826.28
2022-11-29T01:47:17.826Z,100820.00
2022-11-29T01:47:45.129Z,100824.41
2022-11-29T01:48:11.713Z,100824.41
2022-11-29T01:48:34.984Z,100819.97
2022-11-29T01:49:00.406Z,100825.28
2022-11-29T01:49:26.362Z,100830.53
2022-11-29T01:49:51.138Z,100828.91
2022-11-29T01:50:14.794Z,100831.44
2022-11-29T01:50:38.790Z,100826.19
2022-11-29T01:51:02.647Z,100827.94
2022-11-29T01:51:27.401Z,100831.44
2022-11-29T01:51:53.095Z,100830.53
2022-11-29T01:52:18.450Z,100825.22
2022-11-29T01:52:42.723Z,100831.53
2022-11-29T01:53:05.119Z,100829.63
2022-11-29T01:53:27.901Z,100828.75
2022-11-29T01:53:49.766Z,100833.19
2022-11-29T01:54:14.342Z,100826.19
2022-11-29T01:54:42.098Z,100829.81
2022-11-29T01:55:06.982Z,100839.50
2022-11-29T01:55:30.247Z,100829.78
2022-11-29T01:55:55.907Z,100839.56
2022-11-29T01:56:18.861Z,100843.13
2022-11-29T01:56:41.785Z,100836.94
2022-11-29T01:57:05.848Z,100826.47
2022-11-29T01:57:28.335Z,100835.16
2022-11-29T01:57:50.940Z,100835.09
2022-11-29T01:58:15.300Z,100843.09
2022-11-29T01:58:36.963Z,100833.31
2022-11-29T01:59:01.117Z,100834.28
2022-11-29T01:59:28.381Z,100833.31
2022-11-29T01:59:54.734Z,100835.09
2022-11-29T02:00:19.275Z,100837.75
2022-11-29T02:00:41.402Z,100835.97
2022-11-29T02:01:04.054Z,100829.78
2022-11-29T02:01:26.327Z,100834.97
2022-11-29T02:01:48.248Z,100835.06
2022-11-29T02:02:13.805Z,100818.56
2022-11-29T02:02:38.525Z,100837.63
2022-11-29T02:03:06.425Z,100833.28
2022-11-29T02:03:28.157Z,100840.31
2022-11-29T02:03:51.155Z,100838.47
2022-11-29T02:04:14.383Z,100838.47
2022-11-29T02:04:37.955Z,100835.81
2022-11-29T02:05:02.451Z,100831.34
2022-11-29T02:05:25.631Z,100838.47
2022-11-29T02:05:50.892Z,100838.47
2022-11-29T02:06:13.029Z,100839.34
2022-11-29T02:06:35.933Z,100841.09
2022-11-29T02:06:57.594Z,100834.03
2022-11-29T02:07:20.317Z,100840.25
2022-11-29T02:07:44.718Z,100846.50
2022-11-29T02:08:08.285Z,100832.28
2022-11-29T02:08:33.394Z,100829.78
2022-11-29T02:08:56.340Z,100837.63
2022-11-29T02:09:19.682Z,100839.34
2022-11-29T02:09:41.286Z,100843.75
2022-11-29T02:10:04.342Z,100838.44
2022-11-29T02:10:36.025Z,100841.97
2022-11-29T02:11:16.637Z,100839.28
2022-11-29T02:12:06.445Z,100836.63
2022-11-29T02:12:40.290Z,100846.34
2022-11-29T02:13:10.546Z,100845.53
2022-11-29T02:13:40.353Z,100848.19
2022-11-29T02:14:19.180Z,100847.28
2022-11-29T02:14:55.811Z,100836.56
2022-11-29T02:15:27.962Z,100833.91
2022-11-29T02:15:59.180Z,100848.06
2022-11-29T02:16:29.278Z,100835.75
2022-11-29T02:16:58.102Z,100845.41
2022-11-29T02:17:30.752Z,100848.13
2022-11-29T02:18:03.190Z,100813.28
2022-11-29T02:18:39.350Z,100849.81
2022-11-29T02:19:19.616Z,100852.47
2022-11-29T02:20:05.600Z,100849.88
2022-11-29T02:20:56.258Z,100859.63
2022-11-29T02:21:38.527Z,100849.16
2022-11-29T02:22:04.062Z,100852.66
2022-11-29T02:22:32.280Z,100851.81
2022-11-29T02:22:59.437Z,100848.25
2022-11-29T02:23:40.614Z,100825.72
2022-11-29T02:24:27.440Z,100849.13
2022-11-29T02:25:04.005Z,100843.03
2022-11-29T02:25:49.307Z,100846.50
2022-11-29T02:26:33.031Z,100840.38
2022-11-29T02:27:23.121Z,100845.63
2022-11-29T02:28:20.643Z,100845.63
2022-11-29T02:28:58.795Z,100838.50
2022-11-29T02:29:58.303Z,100841.19
2022-11-29T02:30:27.584Z,100834.22
2022-11-29T02:31:34.573Z,100845.63
2022-11-29T02:32:26.675Z,100835.06
2022-11-29T02:33:15.954Z,100837.72
2022-11-29T02:33:53.962Z,100842.09
2022-11-29T02:34:38.807Z,100841.19
2022-11-29T02:35:13.182Z,100844.66
2022-11-29T02:35:54.104Z,100842.03
2022-11-29T02:36:30.810Z,100838.47
2022-11-29T02:37:11.504Z,100834.09
2022-11-29T02:37:49.181Z,100844.66
2022-11-29T02:38:30.243Z,100841.13
2022-11-29T02:39:36.823Z,100844.66
2022-11-29T02:40:13.677Z,100841.09
2022-11-29T02:40:56.706Z,100849.00
2022-11-29T02:41:36.131Z,100843.78
2022-11-29T02:42:19.993Z,100845.53
2022-11-29T02:43:04.889Z,100821.03
2022-11-29T02:43:43.568Z,100843.84
2022-11-29T02:44:30.822Z,100836.88
2022-11-29T02:45:05.074Z,100844.72
2022-11-29T02:45:45.721Z,100843.84
2022-11-29T02:46:24.654Z,100846.50
2022-11-29T02:46:58.074Z,100847.28
2022-11-29T02:47:30.157Z,100847.28
2022-11-29T02:48:03.384Z,100848.06
2022-11-29T02:48:40.737Z,100844.66
2022-11-29T02:49:12.678Z,100835.84
2022-11-29T02:49:53.422Z,100850.91
2022-11-29T02:50:23.266Z,100849.88
2022-11-29T02:50:52.187Z,100851.72
2022-11-29T02:51:23.537Z,100848.06
2022-11-29T02:51:51.380Z,100833.41
2022-11-29T02:52:19.448Z,100853.53
2022-11-29T02:52:48.383Z,100846.41
2022-11-29T02:53:16.503Z,100852.59
2022-11-29T02:53:44.187Z,100841.25
2022-11-29T02:54:13.915Z,100844.75
2022-11-29T02:54:46.895Z,100849.06
2022-11-29T02:55:16.334Z,100847.31
2022-11-29T02:55:43.991Z,100844.66
2022-11-29T02:56:14.486Z,100844.66
2022-11-29T02:56:43.038Z,100840.31
2022-11-29T02:57:11.654Z,100850.78
2022-11-29T02:57:42.334Z,100848.25
2022-11-29T02:58:14.688Z,100847.53
2022-11-29T02:58:45.696Z,100848.38
2022-11-29T02:59:18.010Z,100851.81
2022-11-29T02:59:48.634Z,100853.53
2022-11-29T03:00:13.761Z,100835.97
2022-11-29T03:00:41.211Z,100850.84
2022-11-29T03:01:10.549Z,100849.00
2022-11-29T03:01:40.613Z,100849.00
2022-11-29T03:02:12.500Z,100850.00
2022-11-29T03:02:39.983Z,100849.06
2022-11-29T03:03:12.521Z,100850.78
2022-11-29T03:03:39.849Z,100849.88
2022-11-29T03:04:10.270Z,100847.28
2022-11-29T03:04:37.578Z,100850.69
2022-11-29T03:05:09.768Z,100852.53
2022-11-29T03:05:44.714Z,100844.66
2022-11-29T03:06:16.936Z,100842.88
2022-11-29T03:06:46.606Z,100859.59
2022-11-29T03:07:16.133Z,100858.78
2022-11-29T03:07:46.523Z,100846.50
2022-11-29T03:08:16.498Z,100854.31
2022-11-29T03:08:42.976Z,100848.25
2022-11-29T03:09:12.616Z,100849.88
2022-11-29T03:09:39.391Z,100850.75
2022-11-29T03:10:11.062Z,100851.72
2022-11-29T03:10:44.985Z,100853.41
2022-11-29T03:11:16.666Z,100856.03
2022-11-29T03:11:45.782Z,100847.50
2022-11-29T03:12:20.163Z,100856.97
2022-11-29T03:12:45.325Z,100854.31
2022-11-29T03:13:16.866Z,100865.84
2022-11-29T03:13:51.362Z,100856.94
2022-11-29T03:14:21.981Z,100860.50
2022-11-29T03:14:56.862Z,100863.19
2022-11-29T03:15:27.357Z,100858.72
2022-11-29T03:15:57.945Z,100856.28
2022-11-29T03:16:30.838Z,100850.75
2022-11-29T03:17:03.333Z,100859.59
2022-11-29T03:17:36.563Z,100858.69
2022-11-29T03:18:28.217Z,100859.56
2022-11-29T03:19:05.241Z,100861.28
2022-11-29T03:19:52.670Z,100855.97
2022-11-29T03:20:26.378Z,100859.47
2022-11-29T03:20:57.796Z,100853.31
2022-11-29T03:21:33.162Z,100848.13
2022-11-29T03:22:02.005Z,100855.09
2022-11-29T03:22:39.892Z,100850.00
2022-11-29T03:23:13.285Z,100853.41
2022-11-29T03:23:40.221Z,100853.34
2022-11-29T03:24:09.489Z,100860.47
2022-11-29T03:24:40.936Z,100859.59
2022-11-29T03:25:09.151Z,100861.28
2022-11-29T03:25:39.242Z,100863.13
2022-11-29T03:26:08.526Z,100864.81
2022-11-29T03:26:35.419Z,100863.09
2022-11-29T03:27:01.755Z,100866.53
2022-11-29T03:27:31.747Z,100871.00
2022-11-29T03:28:01.257Z,100867.47
2022-11-29T03:28:29.755Z,100869.28
2022-11-29T03:28:58.603Z,100867.38
2022-11-29T03:29:29.285Z,100865.66
2022-11-29T03:29:56.453Z,100869.13
2022-11-29T03:30:19.806Z,100868.25
2022-11-29T03:30:50.165Z,100876.28
2022-11-29T03:31:19.192Z,100870.06
2022-11-29T03:31:47.668Z,100873.63
2022-11-29T03:32:17.075Z,100871.81
2022-11-29T03:32:48.466Z,100869.97
2022-11-29T03:33:17.087Z,100870.81
2022-11-29T03:33:49.520Z,100876.09
2022-11-29T03:34:24.751Z,100877.94
2022-11-29T03:34:59.438Z,100878.78
2022-11-29T03:35:28.522Z,100867.25
2022-11-29T03:35:58.343Z,100877.84
2022-11-29T03:36:29.605Z,100883.22
2022-11-29T03:36:58.077Z,100881.47
2022-11-29T03:37:26.754Z,100878.94
2022-11-29T03:37:56.747Z,100883.22
2022-11-29T03:38:25.136Z,100877.91
2022-11-29T03:38:47.692Z,100877.91
2022-11-29T03:39:18.561Z,100879.75
2022-11-29T03:39:50.288Z,100877.84
2022-11-29T03:40:16.065Z,100882.44
2022-11-29T03:40:46.392Z,100882.44
2022-11-29T03:41:19.969Z,100879.66
2022-11-29T03:41:48.452Z,100878.03
2022-11-29T03:42:16.954Z,100882.44
2022-11-29T03:42:45.400Z,100880.56
2022-11-29T03:43:10.467Z,100880.69
2022-11-29T03:43:42.643Z,100885.09
2022-11-29T03:44:11.240Z,100881.56
2022-11-29T03:44:36.241Z,100881.56
2022-11-29T03:45:06.538Z,100887.69
2022-11-29T03:45:35.150Z,100878.91
2022-11-29T03:46:00.935Z,100885.88
2022-11-29T03:46:29.219Z,100883.22
2022-11-29T03:46:57.638Z,100890.41
2022-11-29T03:47:26.425Z,100882.44
2022-11-29T03:47:54.516Z,100883.34
2022-11-29T03:48:22.885Z,100882.47
2022-11-29T03:48:48.650Z,100890.34
2022-11-29T03:49:16.948Z,100885.88
2022-11-29T03:49:44.669Z,100882.34
2022-11-29T03:50:11.252Z,100891.34
2022-11-29T03:50:38.850Z,100885.09
2022-11-29T03:51:07.899Z,100890.41
2022-11-29T03:51:41.249Z,100887.75
2022-11-29T03:52:12.222Z,100888.66
2022-11-29T03:52:38.302Z,100885.94
2022-11-29T03:53:04.960Z,100882.59
2022-11-29T03:53:33.724Z,100871.16
2022-11-29T03:54:00.105Z,100884.13
2022-11-29T03:54:26.355Z,100886.81
2022-11-29T03:54:57.460Z,100889.53
2022-11-29T03:55:33.812Z,100894.91
2022-11-29T03:55:59.802Z,100890.50
2022-11-29T03:56:30.175Z,100893.16
2022-11-29T03:56:52.378Z,100898.50
2022-11-29T03:57:17.977Z,100897.53
2022-11-29T03:57:49.726Z,100896.56
2022-11-29T03:58:22.495Z,100898.44
2022-11-29T03:58:54.305Z,100894.00
2022-11-29T03:59:31.141Z,100892.25
2022-11-29T04:00:01.195Z,100900.13
2022-11-29T04:00:45.623Z,100894.88
2022-11-29T04:01:55.251Z,100876.56
2022-11-29T04:02:37.257Z,100897.56
2022-11-29T04:03:22.045Z,100894.00
2022-11-29T04:04:09.817Z,100904.66
2022-11-29T04:05:06.933Z,100901.16
2022-11-29T04:05:54.930Z,100900.28
2022-11-29T04:06:23.991Z,100902.94
2022-11-29T04:07:02.201Z,100898.59
2022-11-29T04:07:40.192Z,100895.06
2022-11-29T04:09:01.622Z,100898.50
2022-11-29T04:09:38.652Z,100893.53
2022-11-29T04:10:16.363Z,100903.03
2022-11-29T04:10:56.258Z,100907.41
2022-11-29T04:11:54.832Z,100903.88
2022-11-29T04:12:44.386Z,100904.72
2022-11-29T04:13:49.309Z,100896.03
2022-11-29T04:14:50.628Z,100899.47
2022-11-29T04:15:36.842Z,100904.84
2022-11-29T04:16:25.080Z,100897.75
2022-11-29T04:17:17.493Z,100901.28
2022-11-29T04:18:12.565Z,100901.28
2022-11-29T04:18:58.860Z,100890.72
2022-11-29T04:19:54.509Z,100899.41
2022-11-29T04:20:48.408Z,100903.94
2022-11-29T04:21:31.540Z,100902.19
2022-11-29T04:22:30.009Z,100903.97
2022-11-29T04:23:28.092Z,100911.91
2022-11-29T04:24:54.448Z,100911.16
2022-11-29T04:25:41.619Z,100902.56
2022-11-29T04:26:30.824Z,100913.97
2022-11-29T04:27:30.785Z,100913.88
2022-11-29T04:28:16.743Z,100909.34
2022-11-29T04:29:02.900Z,100912.00
2022-11-29T04:29:43.790Z,100890.31
2022-11-29T04:30:10.917Z,100915.53
2022-11-29T04:30:45.040Z,100912.00
2022-11-29T04:31:17.587Z,100911.16
2022-11-29T04:31:55.306Z,100918.16
2022-11-29T04:32:48.981Z,100915.47
2022-11-29T04:33:50.059Z,100919.00
2022-11-29T04:34:36.039Z,100914.59
2022-11-29T04:35:12.654Z,100913.53
2022-11-29T04:35:42.545Z,100920.53
2022-11-29T04:36:35.267Z,100917.03
2022-11-29T04:37:19.991Z,100913.59
2022-11-29T04:38:20.805Z,100913.66
2022-11-29T04:39:16.222Z,100917.28
2022-11-29T04:39:59.726Z,100912.09
2022-11-29T04:40:36.809Z,100919.91
2022-11-29T04:41:20.441Z,100927.91
2022-11-29T04:42:19.611Z,100924.31
2022-11-29T04:43:06.749Z,100922.56
2022-11-29T04:44:01.319Z,100925.19
2022-11-29T04:44:46.470Z,100923.44
2022-11-29T04:45:35.296Z,100921.53
2022-11-29T04:46:32.852Z,100916.38
2022-11-29T04:47:09.928Z,100932.00
2022-11-29T04:47:54.305Z,100932.06
2022-11-29T04:48:31.920Z,100929.34
2022-11-29T04:49:06.016Z,100928.47
2022-11-29T04:49:43.630Z,100929.34
2022-11-29T04:50:28.757Z,100927.59
2022-11-29T04:51:06.194Z,100928.47
2022-11-29T04:51:43.740Z,100929.31
2022-11-29T04:52:28.865Z,100934.63
2022-11-29T04:53:10.276Z,100936.44
2022-11-29T04:53:49.538Z,100935.50
2022-11-29T04:54:21.184Z,100937.28
2022-11-29T04:54:51.214Z,100939.09
2022-11-29T04:55:29.433Z,100935.50
2022-11-29T04:56:06.857Z,100929.41
2022-11-29T04:56:36.329Z,100943.53
2022-11-29T04:57:07.351Z,100939.97
2022-11-29T04:57:35.610Z,100943.50
2022-11-29T04:58:05.288Z,100935.56
2022-11-29T04:58:33.942Z,100947.94
2022-11-29T04:59:02.297Z,100945.28
2022-11-29T04:59:29.009Z,100939.97
2022-11-29T04:59:58.347Z,100942.63
2022-11-29T05:00:22.801Z,100936.38
2022-11-29T05:00:54.458Z,100943.50
2022-11-29T05:01:27.321Z,100944.41
2022-11-29T05:02:02.003Z,100940.88
2022-11-29T05:02:33.213Z,100944.41
2022-11-29T05:02:58.223Z,100947.03
2022-11-29T05:03:27.840Z,100943.50
2022-11-29T05:03:57.307Z,100947.03
2022-11-29T05:04:23.527Z,100942.66
2022-11-29T05:04:54.189Z,100944.38
2022-11-29T05:05:29.868Z,100950.53
2022-11-29T05:05:57.568Z,100947.88
2022-11-29T05:06:26.181Z,100951.53
2022-11-29T05:06:58.674Z,100957.69
2022-11-29T05:07:27.743Z,100934.88
2022-11-29T05:07:58.260Z,100949.69
2022-11-29T05:08:29.319Z,100950.50
2022-11-29T05:09:00.210Z,100949.53
2022-11-29T05:09:32.544Z,100948.69
2022-11-29T05:10:00.409Z,100956.66
2022-11-29T05:10:29.616Z,100952.25
2022-11-29T05:11:04.004Z,100947.13
2022-11-29T05:11:36.048Z,100955.94
2022-11-29T05:12:06.643Z,100956.72
2022-11-29T05:12:36.072Z,100952.34
2022-11-29T05:13:07.069Z,100950.53
2022-11-29T05:13:37.507Z,100939.41
2022-11-29T05:14:10.816Z,100956.81
2022-11-29T05:14:45.841Z,100955.06
2022-11-29T05:15:27.585Z,100942.78
2022-11-29T05:16:12.384Z,100959.50
2022-11-29T05:16:47.375Z,100959.50
2022-11-29T05:17:25.889Z,100960.38
2022-11-29T05:17:56.899Z,100959.50
2022-11-29T05:18:28.026Z,100964.97
2022-11-29T05:19:15.147Z,100951.56
2022-11-29T05:20:19.111Z,100959.56
2022-11-29T05:20:48.574Z,100963.00
2022-11-29T05:21:20.119Z,100963.06
2022-11-29T05:21:52.056Z,100949.19
2022-11-29T05:22:25.017Z,100963.97
2022-11-29T05:22:58.426Z,100970.16
2022-11-29T05:23:34.220Z,100963.97
2022-11-29T05:24:11.811Z,100964.00
2022-11-29T05:24:51.317Z,100964.84
2022-11-29T05:25:31.298Z,100968.34
2022-11-29T05:26:00.145Z,100951.72
2022-11-29T05:26:27.318Z,100968.34
2022-11-29T05:26:56.197Z,100970.03
2022-11-29T05:27:28.165Z,100968.41
2022-11-29T05:27:57.277Z,100967.50
2022-11-29T05:28:24.489Z,100966.47
2022-11-29T05:28:54.953Z,100971.78
2022-11-29T05:29:24.080Z,100973.53
2022-11-29T05:29:55.221Z,100971.91
2022-11-29T05:30:20.469Z,100971.91
2022-11-29T05:31:24.662Z,100964.88
2022-11-29T05:31:59.465Z,100978.09
2022-11-29T05:32:28.633Z,100978.09
2022-11-29T05:32:58.111Z,100945.69
2022-11-29T05:33:36.686Z,100970.16
2022-11-29T05:34:21.842Z,100976.25
2022-11-29T05:35:00.666Z,100981.53
2022-11-29T05:36:04.678Z,100971.03
2022-11-29T05:36:38.134Z,100978.88
2022-11-29T05:37:13.179Z,100974.50
2022-11-29T05:37:44.405Z,100980.84